Time;durP1;ratioP1;P1;durP2;ratioP2;P2;SDS_P1;SDS_P2;PMS_P1;PMS_P2;Temp;Humidity;BMP_temperature;BMP_pressure;BME280_temperature;BME280_humidity;BME280_pressure;Samples;Min_cycle;Max_cycle;Signal;HPM_P1;HPM_P2
2023/11/03 00:02:03;;;;;;;0.60;0.47;;;;;;;9.39;100.00;95249.50;6238808;28;20246;-56
2023/11/03 00:05:11;;;;;;;0.30;0.30;;;;;;;9.28;100.00;95286.09;6237901;28;20798;-57
2023/11/03 00:08:21;;;;;;;1.70;0.50;;;;;;;9.20;100.00;95258.34;6239945;28;20602;-57
2023/11/03 00:11:23;;;;;;;0.60;0.40;;;;;;;9.21;100.00;95275.06;6232191;28;20356;-57
2023/11/03 00:14:29;;;;;;;0.43;0.37;;;;;;;9.26;100.00;95281.09;6235958;28;20202;-56
2023/11/03 00:17:37;;;;;;;1.43;0.43;;;;;;;9.09;100.00;95254.28;6235431;28;20286;-56
2023/11/03 00:20:40;;;;;;;0.53;0.30;;;;;;;9.12;100.00;95263.53;6233941;28;20214;-57
2023/11/03 00:23:43;;;;;;;1.50;0.50;;;;;;;9.14;100.00;95272.00;6236198;28;20213;-56
2023/11/03 00:26:57;;;;;;;0.50;0.40;;;;;;;9.17;100.00;95282.84;6238093;28;20226;-56
2023/11/03 00:30:51;;;;;;;2.10;0.33;;;;;;;9.09;100.00;95275.53;6222569;28;20201;-56
2023/11/03 00:34:05;;;;;;;0.67;0.50;;;;;;;9.05;100.00;95258.59;6239859;28;20751;-57
2023/11/03 00:37:13;;;;;;;0.20;0.20;;;;;;;8.99;100.00;95236.66;6236564;28;20231;-56
2023/11/03 00:40:18;;;;;;;0.80;0.33;;;;;;;8.94;100.00;95228.78;6250305;28;20566;-56
2023/11/03 00:43:25;;;;;;;2.30;0.60;;;;;;;8.92;100.00;95230.94;6230097;28;20732;-56
2023/11/03 00:46:28;;;;;;;1.57;0.70;;;;;;;8.92;100.00;95228.28;6236797;28;20595;-56
2023/11/03 00:49:30;;;;;;;2.77;0.40;;;;;;;8.87;100.00;95224.94;6232724;28;20230;-57
2023/11/03 00:52:33;;;;;;;0.57;0.30;;;;;;;8.88;100.00;95215.88;6231434;28;20193;-56
2023/11/03 00:55:39;;;;;;;0.50;0.40;;;;;;;8.86;100.00;95207.41;6232316;28;20221;-56
2023/11/03 00:58:47;;;;;;;0.53;0.40;;;;;;;8.85;100.00;95214.59;6234937;28;20193;-57
2023/11/03 01:01:53;;;;;;;1.87;0.47;;;;;;;8.65;100.00;95188.38;6221482;28;20239;-56
2023/11/03 01:04:55;;;;;;;0.43;0.40;;;;;;;8.81;100.00;95213.59;6226059;28;20216;-57
2023/11/03 01:07:58;;;;;;;1.00;0.60;;;;;;;8.57;100.00;95167.81;6235800;28;20211;-55
2023/11/03 01:11:02;;;;;;;0.40;0.37;;;;;;;8.77;100.00;95208.09;6235399;28;20203;-56
2023/11/03 01:14:06;;;;;;;0.73;0.60;;;;;;;8.77;100.00;95184.19;6241639;28;20290;-57
2023/11/03 01:17:16;;;;;;;0.40;0.40;;;;;;;8.78;100.00;95185.75;6235889;28;20255;-56
2023/11/03 01:20:27;;;;;;;0.40;0.40;;;;;;;8.76;100.00;95187.13;6233910;28;20264;-56
2023/11/03 01:23:32;;;;;;;0.50;0.50;;;;;;;8.72;100.00;95186.16;6232034;28;20745;-57
2023/11/03 01:26:35;;;;;;;0.97;0.40;;;;;;;8.64;100.00;95170.88;6239215;28;20195;-56
2023/11/03 01:29:44;;;;;;;1.07;0.40;;;;;;;8.71;100.00;95192.50;6233806;28;20202;-57
2023/11/03 01:32:52;;;;;;;1.43;0.80;;;;;;;8.68;100.00;95169.22;6235640;28;20200;-56
2023/11/03 01:36:04;;;;;;;1.50;0.70;;;;;;;8.66;100.00;95190.72;6239305;28;20206;-56
2023/11/03 01:39:08;;;;;;;0.70;0.67;;;;;;;8.65;100.00;95175.09;6231511;28;20195;-55
2023/11/03 01:42:11;;;;;;;0.40;0.30;;;;;;;8.60;100.00;95161.91;6231545;28;20260;-56
2023/11/03 01:45:14;;;;;;;0.50;0.50;;;;;;;8.62;100.00;95155.25;6228619;28;20209;-55
2023/11/03 01:48:17;;;;;;;2.07;0.40;;;;;;;8.60;100.00;95146.00;6230047;28;20206;-57
2023/11/03 01:51:25;;;;;;;0.70;0.40;;;;;;;8.61;100.00;95150.22;6238885;28;20593;-56
2023/11/03 01:54:32;;;;;;;0.47;0.40;;;;;;;8.59;100.00;95149.75;6232350;28;20191;-56
2023/11/03 01:57:34;;;;;;;0.80;0.50;;;;;;;8.38;100.00;95134.16;6231082;28;20214;-56
2023/11/03 02:00:38;;;;;;;0.30;0.30;;;;;;;8.49;100.00;95143.50;6230380;28;20230;-55
2023/11/03 02:03:41;;;;;;;1.23;0.40;;;;;;;8.45;100.00;95155.00;6234759;28;20583;-55
2023/11/03 02:06:45;;;;;;;0.30;0.30;;;;;;;8.44;100.00;95134.84;6230207;28;20689;-56
2023/11/03 02:09:53;;;;;;;0.50;0.30;;;;;;;8.34;100.00;95143.72;6236595;28;20202;-56
2023/11/03 02:12:56;;;;;;;0.73;0.37;;;;;;;8.25;100.00;95135.66;6232214;28;20691;-55
2023/11/03 02:15:58;;;;;;;0.40;0.40;;;;;;;8.13;100.00;95115.97;6233694;28;20206;-55
2023/11/03 02:19:18;;;;;;;0.30;0.30;;;;;;;8.27;100.00;95127.38;6236570;28;20188;-56
2023/11/03 02:22:21;;;;;;;0.40;0.20;;;;;;;8.14;100.00;95096.31;6234385;28;20222;-56
2023/11/03 02:25:23;;;;;;;0.30;0.30;;;;;;;8.04;100.00;95088.53;6229865;28;20206;-56
2023/11/03 02:28:26;;;;;;;0.43;0.30;;;;;;;8.24;100.00;95123.47;6234145;28;20285;-56
2023/11/03 02:31:33;;;;;;;0.33;0.33;;;;;;;8.20;100.00;95114.50;6233969;28;20192;-57
2023/11/03 02:34:43;;;;;;;1.40;0.37;;;;;;;8.19;100.00;95112.16;6233083;28;20291;-56
2023/11/03 02:37:56;;;;;;;1.93;0.40;;;;;;;8.18;100.00;95105.28;6226148;28;20734;-56
2023/11/03 02:41:08;;;;;;;1.20;0.30;;;;;;;8.11;100.00;95079.13;6232046;28;20212;-55
2023/11/03 02:44:13;;;;;;;0.50;0.50;;;;;;;8.07;100.00;95082.63;6234647;28;20220;-55
2023/11/03 02:47:19;;;;;;;1.03;0.30;;;;;;;8.01;100.00;95072.09;6234059;28;20210;-57
2023/11/03 02:50:26;;;;;;;0.20;0.20;;;;;;;8.13;100.00;95094.75;6243091;28;20185;-56
2023/11/03 02:53:28;;;;;;;0.53;0.37;;;;;;;8.10;100.00;95103.28;6235250;28;20284;-56
2023/11/03 02:56:35;;;;;;;0.20;0.20;;;;;;;8.08;100.00;95100.09;6234582;28;20207;-54
2023/11/03 02:59:37;;;;;;;0.20;0.20;;;;;;;8.01;100.00;95084.56;6235675;28;20751;-55
2023/11/03 03:02:44;;;;;;;0.30;0.30;;;;;;;7.89;100.00;95086.91;6195425;28;20201;-53
2023/11/03 03:05:51;;;;;;;0.30;0.20;;;;;;;7.75;100.00;95086.81;6180391;28;20209;-55
2023/11/03 03:09:01;;;;;;;0.63;0.30;;;;;;;7.69;100.00;95091.41;6187230;28;20213;-55
2023/11/03 03:12:34;;;;;;;0.40;0.30;;;;;;;7.64;100.00;95085.41;6190936;28;20198;-55
2023/11/03 03:16:10;;;;;;;0.93;0.23;;;;;;;7.60;100.00;95093.13;6200738;28;20194;-55
2023/11/03 03:19:56;;;;;;;0.53;0.40;;;;;;;7.56;100.00;95101.94;6191274;28;20209;-56
2023/11/03 03:23:34;;;;;;;2.10;0.27;;;;;;;7.54;100.00;95104.06;6189094;28;20313;-56
2023/11/03 03:27:44;;;;;;;0.50;0.33;;;;;;;7.49;100.00;95094.34;6192433;28;20354;-56
2023/11/03 03:31:51;;;;;;;1.13;0.30;;;;;;;7.41;100.00;95106.34;5556516;27;21462676;-56
2023/11/03 03:35:13;;;;;;;1.17;0.20;;;;;;;7.32;100.00;95105.41;6274795;28;20195;-55
2023/11/03 03:38:38;;;;;;;0.20;0.20;;;;;;;7.31;100.00;95098.53;6292120;28;20197;-55
2023/11/03 03:41:49;;;;;;;0.20;0.20;;;;;;;7.27;100.00;95083.50;6293158;28;20214;-57
2023/11/03 03:45:06;;;;;;;1.77;0.40;;;;;;;7.24;100.00;95095.44;6291978;28;20202;-54
2023/11/03 03:48:14;;;;;;;0.70;0.27;;;;;;;7.15;100.00;95081.28;6287434;28;20835;-55
2023/11/03 03:51:17;;;;;;;0.77;0.20;;;;;;;7.13;100.00;95073.59;6293197;28;20206;-55
2023/11/03 03:54:30;;;;;;;0.93;0.20;;;;;;;7.03;100.00;95063.13;6292260;28;20190;-55
2023/11/03 03:57:49;;;;;;;0.30;0.30;;;;;;;6.97;100.00;95024.56;6292718;28;20736;-56
2023/11/03 04:00:58;;;;;;;0.33;0.20;;;;;;;6.87;100.00;95011.47;6289612;28;20278;-52
2023/11/03 04:04:04;;;;;;;1.60;0.10;;;;;;;6.91;100.00;95025.72;6290040;28;20194;-53
2023/11/03 04:07:09;;;;;;;0.40;0.20;;;;;;;6.90;100.00;94997.69;6287948;28;20269;-53
2023/11/03 04:10:15;;;;;;;0.30;0.20;;;;;;;6.71;100.00;94981.78;6287629;28;20218;-55
2023/11/03 04:13:17;;;;;;;0.10;0.10;;;;;;;6.76;100.00;94999.44;6289262;28;20195;-52
2023/11/03 04:16:34;;;;;;;0.70;0.17;;;;;;;6.76;100.00;94997.59;6285962;28;20213;-53
2023/11/03 04:19:37;;;;;;;0.27;0.10;;;;;;;6.75;100.00;94993.38;6286700;28;20282;-54
2023/11/03 04:22:43;;;;;;;0.10;0.10;;;;;;;6.73;100.00;94987.56;6290265;28;20196;-53
2023/11/03 04:25:47;;;;;;;0.97;0.10;;;;;;;6.69;100.00;94992.63;6286935;28;20195;-54
2023/11/03 04:28:52;;;;;;;0.13;0.13;;;;;;;6.64;100.00;95005.91;6292244;28;20282;-54
2023/11/03 04:31:56;;;;;;;0.10;0.10;;;;;;;6.65;100.00;95011.97;6314343;28;20673;-54
2023/11/03 04:34:59;;;;;;;0.30;0.20;;;;;;;6.62;100.00;95004.63;6314333;28;20224;-54
2023/11/03 04:38:03;;;;;;;0.20;0.10;;;;;;;6.64;100.00;94979.44;6314677;28;20192;-53
2023/11/03 04:41:12;;;;;;;0.10;0.10;;;;;;;6.62;100.00;94963.09;6306337;28;20190;-55
2023/11/03 04:44:18;;;;;;;0.40;0.40;;;;;;;6.57;100.00;94952.56;6265457;28;20195;-53
2023/11/03 04:47:26;;;;;;;0.10;0.10;;;;;;;6.55;100.00;94949.44;6291647;28;20602;-51
2023/11/03 04:50:30;;;;;;;0.50;0.10;;;;;;;6.51;100.00;94950.28;6297130;28;20260;-54
2023/11/03 04:53:35;;;;;;;0.00;0.00;;;;;;;6.49;100.00;94958.47;6297093;28;20206;-52
2023/11/03 04:56:40;;;;;;;0.10;0.10;;;;;;;6.52;100.00;94963.22;6296555;28;20205;-53
2023/11/03 04:59:46;;;;;;;1.10;0.07;;;;;;;6.57;100.00;94965.00;6299296;28;20221;-54
2023/11/03 05:02:50;;;;;;;0.30;0.10;;;;;;;6.57;100.00;94970.31;6279669;28;20202;-54
2023/11/03 05:05:54;;;;;;;0.13;0.13;;;;;;;6.56;100.00;94984.59;6296929;28;20197;-52
2023/11/03 05:08:57;;;;;;;0.10;0.10;;;;;;;6.55;100.00;94980.34;6296644;28;20225;-53
2023/11/03 05:12:04;;;;;;;0.20;0.10;;;;;;;6.59;100.00;94984.00;6296712;28;20208;-53
2023/11/03 05:15:10;;;;;;;0.40;0.40;;;;;;;6.37;100.00;94945.66;6299277;28;20570;-52
2023/11/03 05:18:13;;;;;;;0.80;0.30;;;;;;;6.60;100.00;94964.44;6295945;28;20205;-53
2023/11/03 05:21:18;;;;;;;0.50;0.20;;;;;;;6.62;100.00;94963.09;6295305;28;20197;-54
2023/11/03 05:24:21;;;;;;;0.20;0.10;;;;;;;6.64;100.00;94960.16;6296839;28;20278;-55
2023/11/03 05:27:24;;;;;;;0.63;0.30;;;;;;;6.61;100.00;94953.59;6297228;28;20270;-53
2023/11/03 05:30:30;;;;;;;1.97;0.43;;;;;;;6.62;100.00;94949.88;6270057;28;20317;-54
2023/11/03 05:33:46;;;;;;;0.70;0.30;;;;;;;6.64;100.00;94936.34;6271716;28;20438;-56
2023/11/03 05:36:54;;;;;;;1.83;0.30;;;;;;;6.59;100.00;94915.25;6270992;28;20192;-55
2023/11/03 05:39:58;;;;;;;0.70;0.23;;;;;;;6.54;100.00;94928.53;6266659;28;20274;-53
2023/11/03 05:43:01;;;;;;;0.30;0.30;;;;;;;6.56;100.00;94939.63;6270070;28;20540;-55
2023/11/03 05:46:04;;;;;;;0.97;0.37;;;;;;;6.56;100.00;94952.88;6267917;28;20520;-54
2023/11/03 05:49:06;;;;;;;0.60;0.30;;;;;;;6.53;100.00;94951.56;6270080;28;20217;-52
2023/11/03 05:52:08;;;;;;;0.57;0.20;;;;;;;6.49;100.00;94949.75;6268723;28;20576;-53
2023/11/03 05:55:11;;;;;;;1.10;0.20;;;;;;;6.44;100.00;94961.97;6267742;28;20206;-54
2023/11/03 05:58:13;;;;;;;0.77;0.30;;;;;;;6.44;100.00;94954.03;6267733;28;20203;-55
2023/11/03 06:01:17;;;;;;;0.20;0.20;;;;;;;6.40;100.00;94929.25;6269557;28;20638;-54
2023/11/03 06:04:19;;;;;;;0.80;0.30;;;;;;;6.43;100.00;94943.75;6268369;28;20203;-54
2023/11/03 06:07:21;;;;;;;0.20;0.20;;;;;;;6.46;100.00;94938.69;6270972;28;20274;-54
2023/11/03 06:10:23;;;;;;;0.70;0.50;;;;;;;6.47;100.00;94934.97;6265944;28;20610;-54
2023/11/03 06:13:26;;;;;;;0.50;0.50;;;;;;;6.46;100.00;94941.34;6269427;28;20198;-53
2023/11/03 06:16:29;;;;;;;1.37;0.70;;;;;;;6.46;100.00;94943.97;6269401;28;20298;-54
2023/11/03 06:19:32;;;;;;;1.23;0.60;;;;;;;6.48;100.00;94933.09;6269143;28;20192;-54
2023/11/03 06:22:34;;;;;;;2.53;0.60;;;;;;;6.50;100.00;94916.94;6268662;28;20340;-54
2023/11/03 06:25:36;;;;;;;0.40;0.40;;;;;;;6.49;100.00;94925.94;6271745;28;20210;-53
2023/11/03 06:28:42;;;;;;;0.53;0.50;;;;;;;6.52;100.00;94915.59;6269075;28;20281;-54
2023/11/03 06:32:10;;;;;;;1.27;0.40;;;;;;;6.50;100.00;94912.44;6294792;28;20233;-54
2023/11/03 06:35:46;;;;;;;1.40;0.60;;;;;;;6.45;100.00;94868.38;6294672;28;20292;-53
2023/11/03 06:38:55;;;;;;;0.60;0.60;;;;;;;6.46;100.00;94854.06;6296041;28;20680;-53
2023/11/03 06:41:59;;;;;;;1.10;0.60;;;;;;;6.46;100.00;94842.69;6261212;28;20200;-57
2023/11/03 06:45:11;;;;;;;0.60;0.50;;;;;;;6.49;100.00;94823.59;6296840;28;20201;-56
2023/11/03 06:48:40;;;;;;;0.77;0.70;;;;;;;6.51;100.00;94823.34;6293628;28;20207;-53
2023/11/03 06:52:04;;;;;;;1.50;0.60;;;;;;;6.52;100.00;94822.25;6294106;28;20237;-55
2023/11/03 06:56:08;;;;;;;0.67;0.60;;;;;;;6.53;100.00;94805.31;6284626;28;20327;-56
2023/11/03 06:59:18;;;;;;;1.30;0.90;;;;;;;6.46;100.00;94789.81;6294603;28;20183;-53
2023/11/03 07:02:22;;;;;;;1.10;0.50;;;;;;;6.55;100.00;94798.69;6296639;28;20186;-55
2023/11/03 07:05:36;;;;;;;1.13;0.80;;;;;;;6.59;100.00;94815.53;6292648;28;20210;-54
2023/11/03 07:08:58;;;;;;;0.80;0.70;;;;;;;6.59;100.00;94828.75;6247439;28;20804;-54
2023/11/03 07:12:27;;;;;;;0.80;0.80;;;;;;;6.59;100.00;94849.91;6296251;28;20265;-55
2023/11/03 07:16:17;;;;;;;1.63;1.10;;;;;;;6.71;100.00;94895.25;6293462;28;20194;-55
2023/11/03 07:20:05;;;;;;;1.13;1.00;;;;;;;6.74;100.00;94907.09;6293176;28;20567;-55
2023/11/03 07:23:47;;;;;;;1.57;1.17;;;;;;;6.81;100.00;94899.63;6264046;28;20209;-55
2023/11/03 07:26:59;;;;;;;0.93;0.80;;;;;;;6.82;100.00;94903.84;6295037;28;20187;-55
2023/11/03 07:30:23;;;;;;;1.47;1.17;;;;;;;6.90;100.00;94923.59;6292123;28;20354;-55
2023/11/03 07:34:23;;;;;;;1.67;1.40;;;;;;;6.92;100.00;94946.03;6284288;28;20205;-54
2023/11/03 07:37:59;;;;;;;2.00;1.33;;;;;;;6.94;100.00;94943.88;6279024;28;20199;-55
2023/11/03 07:41:36;;;;;;;1.57;1.20;;;;;;;6.96;100.00;94941.75;6294489;28;20662;-55
2023/11/03 07:44:38;;;;;;;7.30;1.70;;;;;;;6.98;100.00;94923.72;6292452;28;20209;-55
2023/11/03 07:47:41;;;;;;;1.83;1.47;;;;;;;6.96;100.00;94895.97;6289305;28;20210;-55
2023/11/03 07:50:44;;;;;;;1.43;1.30;;;;;;;7.06;100.00;94893.16;6291219;28;20221;-55
2023/11/03 07:53:47;;;;;;;1.47;1.00;;;;;;;7.09;100.00;94876.69;6291919;28;20561;-53
2023/11/03 07:56:49;;;;;;;1.37;1.07;;;;;;;7.12;100.00;94862.91;6291976;28;20206;-56
2023/11/03 07:59:52;;;;;;;1.00;0.90;;;;;;;7.13;100.00;94861.03;6291689;28;20204;-55
2023/11/03 08:02:54;;;;;;;2.30;1.50;;;;;;;7.16;100.00;94860.47;6288786;28;20281;-55
2023/11/03 08:05:59;;;;;;;1.17;1.07;;;;;;;7.20;100.00;94869.41;6291674;28;20209;-55
2023/11/03 08:09:03;;;;;;;2.27;1.60;;;;;;;7.21;100.00;94869.09;6292236;28;20268;-55
2023/11/03 08:12:08;;;;;;;1.20;1.10;;;;;;;7.23;100.00;94859.00;6288665;28;20204;-53
2023/11/03 08:15:10;;;;;;;1.80;1.63;;;;;;;7.23;100.00;94840.47;6291717;28;20337;-54
2023/11/03 08:18:17;;;;;;;1.30;1.20;;;;;;;7.03;100.00;94821.50;6296140;28;20198;-55
2023/11/03 08:21:19;;;;;;;1.73;1.23;;;;;;;7.26;100.00;94857.66;6296602;28;20197;-56
2023/11/03 08:24:21;;;;;;;1.43;1.30;;;;;;;7.31;100.00;94859.44;6298851;28;20185;-54
2023/11/03 08:27:23;;;;;;;0.90;0.90;;;;;;;7.32;100.00;94845.91;6296105;28;20193;-55
2023/11/03 08:30:25;;;;;;;1.60;1.40;;;;;;;7.31;100.00;94737.63;6294846;28;20241;-55
2023/11/03 08:33:28;;;;;;;0.60;0.60;;;;;;;7.13;100.00;94695.03;6296792;28;20210;-53
2023/11/03 08:36:31;;;;;;;0.50;0.40;;;;;;;7.01;100.00;94704.56;6295440;28;20199;-55
2023/11/03 08:39:34;;;;;;;0.50;0.50;;;;;;;7.15;100.00;94714.09;6295883;28;20187;-54
2023/11/03 08:42:36;;;;;;;0.50;0.50;;;;;;;7.17;100.00;94717.22;6295917;28;20267;-55
2023/11/03 08:45:40;;;;;;;0.20;0.20;;;;;;;7.18;100.00;94733.88;6295573;28;20210;-54
2023/11/03 08:48:43;;;;;;;0.27;0.27;;;;;;;7.09;100.00;94760.22;6294006;28;20203;-56
2023/11/03 08:51:46;;;;;;;0.40;0.40;;;;;;;6.93;100.00;94738.53;6295820;28;20230;-53
2023/11/03 08:54:48;;;;;;;0.30;0.30;;;;;;;6.94;100.00;94750.69;6295373;28;20203;-52
2023/11/03 08:57:51;;;;;;;0.37;0.37;;;;;;;6.89;100.00;94839.97;6295717;28;20191;-54
2023/11/03 09:00:54;;;;;;;0.50;0.50;;;;;;;6.84;100.00;94869.13;6294273;28;20195;-54
2023/11/03 09:03:56;;;;;;;0.30;0.30;;;;;;;6.81;100.00;94875.03;6295432;28;20599;-54
2023/11/03 09:06:59;;;;;;;0.30;0.30;;;;;;;6.82;100.00;94901.19;6294893;28;20196;-54
2023/11/03 09:10:06;;;;;;;0.30;0.30;;;;;;;6.82;100.00;94874.72;6294945;28;20765;-56
2023/11/03 09:13:09;;;;;;;0.30;0.30;;;;;;;6.86;100.00;94865.16;6277302;28;20205;-56
2023/11/03 09:16:11;;;;;;;0.70;0.50;;;;;;;6.90;100.00;94879.38;6292856;28;20244;-56
2023/11/03 09:19:14;;;;;;;2.07;0.37;;;;;;;6.91;100.00;94867.72;6294926;28;20190;-55
2023/11/03 09:22:16;;;;;;;0.20;0.20;;;;;;;6.76;100.00;94832.78;6294839;28;20201;-55
2023/11/03 09:25:31;;;;;;;0.40;0.40;;;;;;;6.87;100.00;94863.28;6276432;28;20613;-56
2023/11/03 09:28:35;;;;;;;0.27;0.27;;;;;;;6.86;100.00;94877.59;6293333;28;20191;-56
2023/11/03 09:31:37;;;;;;;0.20;0.20;;;;;;;6.84;100.00;94863.84;6294336;28;20235;-56
2023/11/03 09:34:39;;;;;;;0.40;0.20;;;;;;;6.84;100.00;94853.25;6280494;28;20283;-56
2023/11/03 09:37:41;;;;;;;0.30;0.30;;;;;;;6.85;100.00;94865.44;6294153;28;20220;-55
2023/11/03 09:40:43;;;;;;;0.83;0.20;;;;;;;6.78;100.00;94871.06;6294356;28;20227;-55
2023/11/03 09:43:46;;;;;;;0.10;0.10;;;;;;;6.80;100.00;94876.06;6294219;28;20854;-54
2023/11/03 09:46:53;;;;;;;0.10;0.10;;;;;;;6.74;100.00;94872.72;6292553;28;20194;-55
2023/11/03 09:49:58;;;;;;;0.27;0.10;;;;;;;6.66;100.00;94878.66;6293923;28;20792;-55
2023/11/03 09:53:07;;;;;;;0.10;0.10;;;;;;;6.66;100.00;94865.44;6293539;28;20290;-55
2023/11/03 09:56:10;;;;;;;0.10;0.10;;;;;;;6.58;100.00;94842.28;6291333;28;20219;-56
2023/11/03 09:59:13;;;;;;;0.10;0.10;;;;;;;6.63;100.00;94855.41;6292879;28;20201;-55
2023/11/03 10:02:19;;;;;;;0.10;0.10;;;;;;;6.62;100.00;94861.78;6293381;28;20197;-53
2023/11/03 10:05:24;;;;;;;0.10;0.10;;;;;;;6.60;100.00;94863.91;6290782;28;20198;-55
2023/11/03 10:08:28;;;;;;;0.57;0.20;;;;;;;6.64;100.00;94854.34;6294694;28;20198;-55
2023/11/03 10:11:30;;;;;;;0.17;0.10;;;;;;;6.64;100.00;94849.84;6293129;28;20209;-55
2023/11/03 10:14:35;;;;;;;0.10;0.10;;;;;;;6.66;100.00;94876.03;6292629;28;20198;-55
2023/11/03 10:17:37;;;;;;;0.10;0.10;;;;;;;6.65;100.00;94877.06;6293578;28;20195;-55
2023/11/03 10:20:40;;;;;;;1.60;0.27;;;;;;;6.64;100.00;94864.94;6293110;28;20198;-54
2023/11/03 10:23:42;;;;;;;0.40;0.20;;;;;;;6.58;100.00;94844.91;6293592;28;20783;-54
2023/11/03 10:26:44;;;;;;;0.10;0.10;;;;;;;6.44;100.00;94805.16;6294204;28;20662;-53
2023/11/03 10:29:51;;;;;;;0.10;0.10;;;;;;;6.60;100.00;94813.66;6293313;28;20229;-52
2023/11/03 10:32:54;;;;;;;0.73;0.20;;;;;;;6.66;100.00;94860.94;6293160;28;20567;-55
2023/11/03 10:35:57;;;;;;;0.40;0.30;;;;;;;6.65;100.00;94888.47;6293052;28;20319;-56
2023/11/03 10:38:59;;;;;;;0.30;0.30;;;;;;;6.58;100.00;94887.22;6291641;28;20218;-55
2023/11/03 10:42:05;;;;;;;0.40;0.30;;;;;;;6.59;100.00;94862.34;6294157;28;20557;-56
2023/11/03 10:45:08;;;;;;;0.30;0.20;;;;;;;6.57;100.00;94870.56;6292899;28;20647;-55
2023/11/03 10:48:18;;;;;;;0.33;0.33;;;;;;;6.58;100.00;94863.44;6291566;28;20214;-55
2023/11/03 10:51:36;;;;;;;1.17;0.17;;;;;;;6.58;100.00;94884.59;6291611;28;20279;-55
2023/11/03 10:54:53;;;;;;;1.03;0.20;;;;;;;6.58;100.00;94879.28;6290995;28;20713;-54
2023/11/03 10:57:58;;;;;;;0.20;0.20;;;;;;;6.64;100.00;94889.50;6293297;28;20203;-52
2023/11/03 11:01:07;;;;;;;0.20;0.20;;;;;;;6.62;100.00;94873.16;6292921;28;20739;-55
2023/11/03 11:04:18;;;;;;;0.20;0.20;;;;;;;6.65;100.00;94867.31;6287563;28;20205;-53
2023/11/03 11:07:25;;;;;;;0.50;0.30;;;;;;;6.73;100.00;94855.28;6282607;28;20210;-55
2023/11/03 11:10:39;;;;;;;0.20;0.20;;;;;;;6.67;100.00;94882.88;6267757;28;20199;-55
2023/11/03 11:13:41;;;;;;;0.10;0.10;;;;;;;6.48;100.00;94898.72;6290760;28;20210;-52
2023/11/03 11:16:43;;;;;;;0.10;0.10;;;;;;;6.62;100.00;94935.84;6281885;28;20308;-55
2023/11/03 11:19:54;;;;;;;0.77;0.20;;;;;;;6.64;100.00;94931.06;6290476;28;20221;-55
2023/11/03 11:22:58;;;;;;;0.20;0.20;;;;;;;6.65;100.00;94922.84;6287624;28;20269;-56
2023/11/03 11:26:02;;;;;;;0.20;0.20;;;;;;;6.65;100.00;94919.41;6285329;28;20571;-55
2023/11/03 11:29:24;;;;;;;0.10;0.10;;;;;;;6.59;100.00;94931.91;6284534;28;20190;-56
2023/11/03 11:32:27;;;;;;;0.20;0.20;;;;;;;6.51;100.00;94923.84;6281459;28;20199;-53
2023/11/03 11:35:37;;;;;;;1.80;0.20;;;;;;;6.50;100.00;94930.16;6284767;28;20735;-55
2023/11/03 11:38:41;;;;;;;0.10;0.10;;;;;;;6.53;100.00;94935.69;6280492;28;20209;-55
2023/11/03 11:41:51;;;;;;;0.57;0.10;;;;;;;6.55;100.00;94928.28;6285889;28;20741;-55
2023/11/03 11:44:54;;;;;;;0.20;0.20;;;;;;;6.53;100.00;94945.47;6288625;28;20252;-55
2023/11/03 11:47:59;;;;;;;0.03;0.03;;;;;;;6.38;100.00;94918.16;6285185;28;20201;-54
2023/11/03 11:51:02;;;;;;;0.00;0.00;;;;;;;6.43;100.00;94904.88;6267209;28;20815;-56
2023/11/03 11:54:10;;;;;;;0.20;0.10;;;;;;;6.39;100.00;94885.34;6296099;28;20539;-54
2023/11/03 11:57:13;;;;;;;0.17;0.10;;;;;;;6.28;100.00;94886.53;6291541;28;20189;-54
2023/11/03 12:00:16;;;;;;;0.50;0.10;;;;;;;6.06;100.00;94847.44;6271343;28;20195;-55
2023/11/03 12:03:19;;;;;;;0.10;0.10;;;;;;;6.31;100.00;94899.22;6295872;28;20640;-54
2023/11/03 12:06:21;;;;;;;0.00;0.00;;;;;;;6.30;100.00;94931.97;6292860;28;20231;-53
2023/11/03 12:09:23;;;;;;;0.10;0.10;;;;;;;6.23;100.00;94947.41;6261929;28;20193;-54
2023/11/03 12:12:27;;;;;;;0.10;0.10;;;;;;;5.94;100.00;94919.16;6291846;28;20296;-54
2023/11/03 12:15:30;;;;;;;0.10;0.10;;;;;;;6.05;100.00;94937.53;6291062;28;20669;-53
2023/11/03 12:18:41;;;;;;;0.10;0.10;;;;;;;6.04;100.00;94917.47;6274007;28;20692;-54
2023/11/03 12:21:53;;;;;;;0.10;0.10;;;;;;;6.04;100.00;94896.34;6287249;28;20291;-52
2023/11/03 12:24:57;;;;;;;0.13;0.10;;;;;;;6.14;100.00;94901.50;6292375;28;20661;-55
2023/11/03 12:27:59;;;;;;;0.10;0.10;;;;;;;6.11;100.00;94923.22;6286793;28;20202;-55
2023/11/03 12:31:04;;;;;;;0.37;0.30;;;;;;;5.86;100.00;94895.97;6283746;28;20534;-51
2023/11/03 12:34:09;;;;;;;1.30;0.10;;;;;;;6.08;100.00;94916.63;6289723;28;20319;-55
2023/11/03 12:37:12;;;;;;;0.47;0.10;;;;;;;5.91;100.00;94881.91;6267525;28;20390;-54
2023/11/03 12:40:22;;;;;;;0.10;0.10;;;;;;;5.95;100.00;94838.81;6286016;28;20665;-54
2023/11/03 12:43:25;;;;;;;0.27;0.20;;;;;;;6.04;100.00;94838.19;6288463;28;20200;-54
2023/11/03 12:46:29;;;;;;;0.20;0.20;;;;;;;5.89;100.00;94855.00;6288823;28;20234;-53
2023/11/03 12:49:31;;;;;;;0.27;0.20;;;;;;;5.87;100.00;94842.06;6290414;28;20576;-57
2023/11/03 12:52:33;;;;;;;0.30;0.10;;;;;;;5.93;100.00;94813.75;6273363;28;20213;-55
2023/11/03 12:55:35;;;;;;;0.20;0.20;;;;;;;5.95;100.00;94812.41;6240612;28;20235;-55
2023/11/03 12:58:38;;;;;;;0.10;0.10;;;;;;;5.88;100.00;94819.06;6243251;28;20199;-55
2023/11/03 13:01:40;;;;;;;0.10;0.10;;;;;;;5.91;100.00;94797.34;6225909;28;20308;-55
2023/11/03 13:04:42;;;;;;;0.27;0.10;;;;;;;5.74;100.00;94783.84;6244310;28;20191;-56
2023/11/03 13:07:50;;;;;;;0.10;0.10;;;;;;;5.86;100.00;94856.34;6240791;28;20202;-56
2023/11/03 13:10:54;;;;;;;0.13;0.07;;;;;;;5.68;100.00;94894.03;6234789;28;21270;-57
2023/11/03 13:13:57;;;;;;;0.00;0.00;;;;;;;6.00;100.00;94969.31;6238673;28;20678;-55
2023/11/03 13:17:01;;;;;;;0.10;0.10;;;;;;;5.85;100.00;94994.78;6241060;28;20565;-56
2023/11/03 13:20:15;;;;;;;0.20;0.10;;;;;;;5.93;100.00;94985.50;6241383;28;20289;-54
2023/11/03 13:23:18;;;;;;;0.10;0.10;;;;;;;5.78;100.00;94993.53;6238278;28;20747;-55
2023/11/03 13:26:21;;;;;;;0.23;0.20;;;;;;;5.73;100.00;94993.56;6244237;28;20604;-56
2023/11/03 13:29:24;;;;;;;0.10;0.10;;;;;;;5.61;100.00;94991.28;6238607;28;20233;-54
2023/11/03 13:32:27;;;;;;;0.20;0.10;;;;;;;5.62;100.00;94974.38;6243106;28;20212;-55
2023/11/03 13:35:30;;;;;;;0.10;0.10;;;;;;;5.59;100.00;94977.56;6243230;28;20204;-56
2023/11/03 13:38:32;;;;;;;0.10;0.10;;;;;;;5.60;100.00;94972.00;6243615;28;20230;-55
2023/11/03 13:41:35;;;;;;;0.20;0.20;;;;;;;5.60;100.00;94969.34;6243553;28;20576;-54
2023/11/03 13:44:37;;;;;;;0.27;0.10;;;;;;;5.62;100.00;94982.31;6244176;28;20716;-54
2023/11/03 13:47:40;;;;;;;0.10;0.10;;;;;;;5.63;100.00;95012.94;6243022;28;20199;-54
2023/11/03 13:50:42;;;;;;;0.10;0.10;;;;;;;5.57;100.00;95016.69;6243997;28;21085;-54
2023/11/03 13:53:45;;;;;;;0.67;0.10;;;;;;;5.63;100.00;95032.19;6241652;28;20198;-56
2023/11/03 13:56:47;;;;;;;0.50;0.10;;;;;;;5.47;100.00;95033.38;6244298;28;20210;-56
2023/11/03 13:59:49;;;;;;;0.10;0.10;;;;;;;5.74;100.00;95064.59;6243011;28;20199;-55
2023/11/03 14:02:52;;;;;;;0.10;0.10;;;;;;;5.67;100.00;95075.50;6244071;28;20211;-55
2023/11/03 14:05:54;;;;;;;0.57;0.30;;;;;;;5.68;100.00;95081.56;6243934;28;20919;-54
2023/11/03 14:08:58;;;;;;;0.20;0.20;;;;;;;5.59;100.00;95081.34;6240927;28;20198;-54
2023/11/03 14:12:00;;;;;;;0.23;0.20;;;;;;;5.52;100.00;95083.50;6244362;28;20288;-54
2023/11/03 14:15:02;;;;;;;0.10;0.10;;;;;;;5.54;100.00;95101.72;6243280;28;20203;-54
2023/11/03 14:18:05;;;;;;;0.20;0.20;;;;;;;5.38;100.00;95098.38;6244055;28;20208;-53
2023/11/03 14:21:07;;;;;;;0.20;0.20;;;;;;;5.31;100.00;95095.22;6242498;28;20191;-52
2023/11/03 14:24:11;;;;;;;0.33;0.10;;;;;;;5.29;100.00;95103.44;6242626;28;20202;-53
2023/11/03 14:27:17;;;;;;;0.50;0.30;;;;;;;5.29;100.00;95110.56;6244497;28;20640;-51
2023/11/03 14:30:20;;;;;;;0.13;0.13;;;;;;;5.24;100.00;95111.38;6242733;28;20239;-53
2023/11/03 14:33:24;;;;;;;1.63;0.20;;;;;;;5.06;100.00;95090.84;6243081;28;20638;-50
2023/11/03 14:36:26;;;;;;;0.20;0.20;;;;;;;5.21;100.00;95116.38;6243382;28;20272;-54
2023/11/03 14:39:46;;;;;;;0.20;0.20;;;;;;;5.19;100.00;95127.22;6243323;28;20201;-53
2023/11/03 14:42:48;;;;;;;1.60;0.20;;;;;;;5.14;100.00;95138.59;6244116;28;20225;-53
2023/11/03 14:45:51;;;;;;;0.00;0.00;;;;;;;5.05;100.00;95134.13;6243156;28;20536;-54